Time;durP1;ratioP1;P1;durP2;ratioP2;P2;SDS_P1;SDS_P2;PMS_P1;PMS_P2;Temp;Humidity;BMP_temperature;BMP_pressure;BME280_temperature;BME280_humidity;BME280_pressure;Samples;Min_cycle;Max_cycle;Signal;HPM_P1;HPM_P2
2023/04/01 00:01:17;;;;;;;27.02;8.30;;;15.30;96.70;;;;;;4984711;28;20112;-73
2023/04/01 00:03:45;;;;;;;31.13;8.50;;;15.30;96.70;;;;;;5002576;28;20080;-73
2023/04/01 00:06:15;;;;;;;26.65;7.85;;;15.30;96.70;;;;;;4986861;28;20559;-73
2023/04/01 00:08:44;;;;;;;28.58;8.52;;;15.30;96.70;;;;;;5009974;28;20509;-73
2023/04/01 00:11:24;;;;;;;24.67;8.15;;;15.20;96.70;;;;;;4993948;28;20045;-73
2023/04/01 00:13:52;;;;;;;27.45;7.60;;;15.30;96.70;;;;;;4998119;28;20046;-73
2023/04/01 00:16:20;;;;;;;27.95;7.00;;;15.20;96.70;;;;;;4996798;28;20045;-73
2023/04/01 00:18:50;;;;;;;31.05;8.10;;;15.20;96.70;;;;;;5004998;28;20050;-73
2023/04/01 00:21:20;;;;;;;29.63;7.82;;;15.20;96.70;;;;;;5010491;28;20677;-74
2023/04/01 00:24:08;;;;;;;34.08;7.75;;;15.20;96.70;;;;;;5018300;28;20050;-73
2023/04/01 00:26:38;;;;;;;26.70;7.15;;;15.10;96.70;;;;;;5006633;28;20116;-72
2023/04/01 00:29:06;;;;;;;35.72;7.47;;;15.10;96.70;;;;;;4987911;28;20053;-73
2023/04/01 00:31:35;;;;;;;24.58;7.00;;;15.00;96.70;;;;;;4994607;28;20140;-74
2023/04/01 00:34:04;;;;;;;23.98;6.32;;;15.00;96.70;;;;;;5006711;28;20492;-73
2023/04/01 00:36:32;;;;;;;21.67;6.30;;;15.00;96.70;;;;;;4999493;28;20052;-73
2023/04/01 00:39:01;;;;;;;23.17;6.40;;;15.00;96.70;;;;;;5016784;28;20081;-73
2023/04/01 00:41:29;;;;;;;31.08;7.60;;;15.00;96.70;;;;;;4996556;28;20415;-73
2023/04/01 00:46:55;;;;;;;25.90;7.45;;;15.00;96.70;;;;;;5160310;27;20525;-73
2023/04/01 00:49:27;;;;;;;23.58;6.95;;;15.00;96.70;;;;;;5159706;27;20099;-72
2023/04/01 00:51:57;;;;;;;25.58;6.35;;;15.00;96.70;;;;;;5160178;27;20085;-73
2023/04/01 00:54:27;;;;;;;25.13;8.05;;;15.00;96.70;;;;;;5162355;27;20049;-73
2023/04/01 00:56:59;;;;;;;26.17;6.93;;;15.00;96.70;;;;;;5159377;27;20535;-73
2023/04/01 00:59:30;;;;;;;25.02;6.78;;;15.00;96.70;;;;;;5161473;27;20050;-73
2023/04/01 01:02:01;;;;;;;22.75;6.60;;;15.00;96.70;;;;;;5143018;27;20042;-73
2023/04/01 01:04:31;;;;;;;18.38;5.57;;;15.00;96.70;;;;;;5153677;27;20050;-73
2023/04/01 01:07:12;;;;;;;25.42;5.95;;;15.00;96.70;;;;;;5160488;27;20127;-73
2023/04/01 01:09:47;;;;;;;22.23;6.30;;;14.90;96.70;;;;;;5158231;27;20050;-73
2023/04/01 01:12:19;;;;;;;20.02;6.03;;;14.90;96.70;;;;;;5156961;27;20065;-73
2023/04/01 01:15:01;;;;;;;27.80;7.05;;;14.90;96.70;;;;;;5160102;27;20042;-73
2023/04/01 01:17:43;;;;;;;26.40;6.28;;;14.90;96.70;;;;;;5159521;27;20714;-73
2023/04/01 01:20:33;;;;;;;23.38;6.60;;;14.90;96.70;;;;;;5160803;27;20282;-73
2023/04/01 01:23:29;;;;;;;21.50;6.22;;;14.90;96.70;;;;;;5142699;27;20544;-73
2023/04/01 01:26:16;;;;;;;27.42;6.57;;;14.80;96.70;;;;;;5155606;27;20054;-73
2023/04/01 01:28:55;;;;;;;23.63;6.77;;;14.80;96.70;;;;;;5142788;27;20535;-73
2023/04/01 01:31:34;;;;;;;27.83;6.65;;;14.80;96.70;;;;;;5162057;27;20771;-73
2023/04/01 01:34:11;;;;;;;18.17;6.07;;;14.70;96.70;;;;;;5153616;27;20057;-73
2023/04/01 01:36:44;;;;;;;28.10;7.43;;;14.70;96.70;;;;;;5159065;27;20077;-72
2023/04/01 01:39:14;;;;;;;25.23;7.82;;;14.60;96.70;;;;;;5160155;27;20087;-72
2023/04/01 01:41:45;;;;;;;22.55;6.13;;;14.60;96.70;;;;;;5158912;27;20051;-72
2023/04/01 01:44:15;;;;;;;28.88;6.28;;;14.60;96.70;;;;;;5151376;27;20094;-72
2023/04/01 01:46:45;;;;;;;25.73;6.20;;;14.50;96.70;;;;;;5158921;27;20396;-72
2023/04/01 01:49:15;;;;;;;24.20;6.38;;;14.40;96.70;;;;;;5159393;27;20681;-72
2023/04/01 01:51:45;;;;;;;25.95;6.68;;;14.40;96.70;;;;;;5142361;27;20495;-73
2023/04/01 01:54:14;;;;;;;21.70;6.63;;;14.40;96.70;;;;;;5158280;27;20082;-72
2023/04/01 01:56:48;;;;;;;24.75;6.45;;;14.40;96.70;;;;;;5154135;27;20123;-72
2023/04/01 01:59:20;;;;;;;28.45;6.72;;;14.30;96.70;;;;;;5127988;27;20056;-72
2023/04/01 02:01:51;;;;;;;24.77;7.18;;;14.30;96.70;;;;;;5145480;27;20054;-72
2023/04/01 02:04:21;;;;;;;19.98;6.60;;;14.20;96.70;;;;;;5144319;27;20050;-72
2023/04/01 02:06:58;;;;;;;31.65;7.13;;;14.20;96.70;;;;;;5126847;27;20056;-73
2023/04/01 02:09:26;;;;;;;21.08;6.25;;;14.20;96.70;;;;;;5141253;27;20050;-72
2023/04/01 02:11:58;;;;;;;29.23;6.07;;;14.20;96.70;;;;;;5145113;27;20067;-72
2023/04/01 02:14:35;;;;;;;23.27;5.70;;;14.10;96.70;;;;;;5127797;27;20062;-72
2023/04/01 02:17:07;;;;;;;30.58;7.15;;;14.10;96.70;;;;;;5136723;27;20497;-72
2023/04/01 02:19:40;;;;;;;26.95;6.47;;;14.10;96.70;;;;;;5142840;27;20508;-73
2023/04/01 02:22:15;;;;;;;23.23;6.00;;;14.00;96.70;;;;;;5119629;27;20049;-72
2023/04/01 02:24:45;;;;;;;27.00;6.40;;;14.00;96.70;;;;;;5144432;27;20047;-72
2023/04/01 02:27:14;;;;;;;29.50;6.88;;;14.00;96.70;;;;;;5137566;27;20499;-73
2023/04/01 02:29:42;;;;;;;24.02;6.63;;;14.00;96.70;;;;;;5127745;27;20069;-73
2023/04/01 02:32:12;;;;;;;24.10;6.28;;;13.90;96.70;;;;;;5113457;27;20069;-73
2023/04/01 02:34:42;;;;;;;25.52;7.80;;;13.90;96.70;;;;;;5142948;27;20043;-72
2023/04/01 02:37:13;;;;;;;22.25;6.82;;;13.90;96.70;;;;;;5143552;27;20385;-73
2023/04/01 02:39:42;;;;;;;20.65;6.03;;;13.90;96.70;;;;;;5135767;27;20042;-72
2023/04/01 02:42:11;;;;;;;19.73;6.22;;;13.90;96.70;;;;;;5137763;27;20157;-73
2023/04/01 02:44:39;;;;;;;23.77;5.95;;;13.80;96.70;;;;;;5123834;27;20055;-72
2023/04/01 02:47:07;;;;;;;22.38;6.00;;;13.80;96.70;;;;;;5126524;27;20073;-72
2023/04/01 02:49:35;;;;;;;24.90;6.55;;;13.80;96.70;;;;;;5144390;27;20492;-73
2023/04/01 02:52:04;;;;;;;26.75;5.95;;;13.70;96.70;;;;;;5145423;27;20050;-73
2023/04/01 02:54:33;;;;;;;22.48;5.63;;;13.70;96.70;;;;;;5127418;27;20443;-72
2023/04/01 02:57:01;;;;;;;22.00;5.97;;;13.70;96.70;;;;;;5117914;27;20885;-72
2023/04/01 02:59:29;;;;;;;25.70;5.80;;;13.70;96.70;;;;;;5143861;27;20554;-73
2023/04/01 03:01:57;;;;;;;29.45;8.23;;;13.70;96.70;;;;;;5145773;27;20121;-73
2023/04/01 03:04:25;;;;;;;22.75;5.70;;;13.70;96.70;;;;;;5143205;27;20042;-72
2023/04/01 03:06:53;;;;;;;20.50;5.88;;;13.80;96.70;;;;;;5145713;27;20070;-72
2023/04/01 03:09:21;;;;;;;22.35;6.07;;;13.80;96.70;;;;;;5138697;27;20070;-72
2023/04/01 03:11:50;;;;;;;22.55;6.03;;;13.80;96.70;;;;;;5143890;27;20776;-73
2023/04/01 03:14:19;;;;;;;19.75;5.57;;;13.70;96.70;;;;;;5143676;27;20042;-72
2023/04/01 03:16:47;;;;;;;21.85;5.57;;;13.70;96.70;;;;;;5144028;27;20057;-72
2023/04/01 03:19:16;;;;;;;23.00;5.93;;;13.70;96.70;;;;;;5145132;27;20038;-72
2023/04/01 03:21:44;;;;;;;19.98;5.78;;;13.70;96.70;;;;;;5126573;27;20038;-73
2023/04/01 03:24:12;;;;;;;21.17;6.68;;;13.80;96.70;;;;;;5126817;27;20049;-73
2023/04/01 03:26:40;;;;;;;26.17;6.78;;;13.80;96.70;;;;;;5124337;27;20043;-73
2023/04/01 03:29:10;;;;;;;14.38;5.18;;;13.80;96.70;;;;;;5133516;27;20047;-73
2023/04/01 03:31:38;;;;;;;21.88;6.45;;;13.90;96.70;;;;;;5142361;27;20446;-72
2023/04/01 03:34:06;;;;;;;17.70;5.80;;;13.90;96.70;;;;;;5126262;27;20045;-74
2023/04/01 03:36:34;;;;;;;12.75;4.47;;;13.90;96.70;;;;;;5144345;27;20094;-73
2023/04/01 03:39:03;;;;;;;15.98;4.82;;;13.90;96.70;;;;;;5142429;27;20061;-73
2023/04/01 03:41:39;;;;;;;12.27;4.85;;;13.90;96.70;;;;;;5143327;27;20058;-73
2023/04/01 03:44:09;;;;;;;11.55;4.05;;;13.90;96.70;;;;;;5132966;27;20047;-73
2023/04/01 03:46:36;;;;;;;10.85;4.10;;;13.90;96.70;;;;;;5144829;27;20095;-72
2023/04/01 03:49:11;;;;;;;14.38;4.78;;;14.00;96.70;;;;;;5138431;27;20150;-73
2023/04/01 03:51:40;;;;;;;9.77;3.60;;;13.90;96.70;;;;;;5144232;27;20081;-74
2023/04/01 03:54:08;;;;;;;10.13;3.38;;;14.00;96.70;;;;;;5140602;27;20046;-73
2023/04/01 03:56:36;;;;;;;18.05;5.05;;;14.00;96.70;;;;;;5132259;27;20054;-72
2023/04/01 03:59:07;;;;;;;13.45;4.50;;;14.00;96.70;;;;;;5139170;27;20038;-73
2023/04/01 04:01:36;;;;;;;8.07;4.07;;;14.00;96.70;;;;;;5143642;27;20080;-73
2023/04/01 04:04:04;;;;;;;13.65;4.18;;;14.00;96.70;;;;;;5125542;27;20061;-73
2023/04/01 04:06:33;;;;;;;11.43;4.22;;;14.00;96.70;;;;;;5125272;27;20049;-73
2023/04/01 04:09:01;;;;;;;11.80;4.63;;;13.90;96.70;;;;;;5124831;27;20070;-72
2023/04/01 04:11:32;;;;;;;12.30;4.22;;;13.90;96.70;;;;;;5140504;27;20043;-73
2023/04/01 04:14:01;;;;;;;15.65;3.90;;;13.90;96.70;;;;;;5120405;27;20074;-73
2023/04/01 04:16:29;;;;;;;10.63;3.95;;;13.90;96.70;;;;;;5142574;27;20129;-73
2023/04/01 04:19:02;;;;;;;11.70;3.20;;;13.90;96.70;;;;;;5142093;27;20046;-72
2023/04/01 04:21:30;;;;;;;11.80;4.10;;;13.90;96.70;;;;;;5143036;27;20764;-73
2023/04/01 04:24:00;;;;;;;12.18;3.90;;;13.90;96.70;;;;;;5134631;27;20039;-73
2023/04/01 04:26:34;;;;;;;11.85;4.20;;;13.90;96.70;;;;;;5142496;27;20054;-73
2023/04/01 04:29:25;;;;;;;13.50;4.50;;;13.90;96.70;;;;;;5141866;27;20129;-73
2023/04/01 04:31:53;;;;;;;13.13;4.93;;;13.90;96.70;;;;;;5142770;27;20070;-73
2023/04/01 04:34:23;;;;;;;12.57;4.97;;;13.90;96.70;;;;;;5142422;27;20046;-73
2023/04/01 04:36:51;;;;;;;15.85;5.00;;;13.80;96.70;;;;;;5125160;27;20045;-73
2023/04/01 04:39:19;;;;;;;17.50;4.97;;;13.70;96.70;;;;;;5142638;27;20091;-73
2023/04/01 04:41:49;;;;;;;10.20;4.45;;;13.70;96.70;;;;;;5125229;27;20074;-73
2023/04/01 04:44:16;;;;;;;18.58;5.72;;;13.60;96.70;;;;;;5143115;27;20211;-73
2023/04/01 04:46:45;;;;;;;18.10;5.43;;;13.60;96.70;;;;;;5142109;27;20940;-73
2023/04/01 04:49:14;;;;;;;15.57;5.18;;;13.50;96.70;;;;;;5121707;28;20047;-73
2023/04/01 04:51:44;;;;;;;17.33;5.07;;;13.60;96.70;;;;;;5137840;27;20042;-73
2023/04/01 04:54:14;;;;;;;18.48;5.05;;;13.50;96.70;;;;;;5142753;27;20057;-72
2023/04/01 04:56:51;;;;;;;13.77;5.35;;;13.40;96.70;;;;;;5141001;27;20608;-73
2023/04/01 04:59:21;;;;;;;17.25;5.78;;;13.50;96.70;;;;;;5142385;27;20575;-73
2023/04/01 05:02:09;;;;;;;20.42;5.45;;;13.50;96.70;;;;;;5143109;27;20066;-73
2023/04/01 05:04:37;;;;;;;15.18;4.80;;;13.50;96.70;;;;;;5140420;27;20678;-73
2023/04/01 05:07:11;;;;;;;13.60;5.35;;;13.40;96.70;;;;;;5133538;27;20347;-74
2023/04/01 05:09:39;;;;;;;18.40;6.40;;;13.40;96.70;;;;;;5141830;27;20149;-73
2023/04/01 05:12:07;;;;;;;20.50;6.20;;;13.50;96.70;;;;;;5124660;27;20142;-73
2023/04/01 05:14:57;;;;;;;18.00;5.93;;;13.50;96.70;;;;;;5127908;27;20938;-73
2023/04/01 05:17:26;;;;;;;17.27;6.70;;;13.50;96.70;;;;;;5141051;27;20506;-72
2023/04/01 05:19:54;;;;;;;18.63;6.10;;;13.40;96.70;;;;;;5142798;27;20054;-73
2023/04/01 05:22:24;;;;;;;14.18;5.35;;;13.50;96.70;;;;;;5140029;27;20442;-72
2023/04/01 05:24:51;;;;;;;16.27;6.03;;;13.40;96.70;;;;;;5140108;27;20045;-73
2023/04/01 05:27:20;;;;;;;16.92;5.80;;;13.40;96.70;;;;;;5140927;27;20220;-73
2023/04/01 05:29:48;;;;;;;14.05;5.60;;;13.40;96.70;;;;;;5141622;27;20455;-73
2023/04/01 05:32:36;;;;;;;10.90;5.78;;;13.40;96.70;;;;;;5092718;28;20097;-74
2023/04/01 05:35:05;;;;;;;10.88;4.85;;;13.40;96.70;;;;;;5080910;28;20058;-72
2023/04/01 05:37:35;;;;;;;15.00;5.60;;;13.50;96.70;;;;;;5084837;28;20504;-72
2023/04/01 05:40:05;;;;;;;16.38;6.20;;;13.50;96.70;;;;;;5085226;28;20055;-73
2023/04/01 05:42:34;;;;;;;15.25;6.25;;;13.50;96.70;;;;;;5092069;28;20097;-73
2023/04/01 05:45:06;;;;;;;19.48;7.55;;;13.50;96.70;;;;;;5081689;28;20525;-74
2023/04/01 05:47:52;;;;;;;17.95;6.95;;;13.60;96.70;;;;;;5093804;28;20055;-73
2023/04/01 05:50:20;;;;;;;14.77;6.63;;;13.60;96.70;;;;;;5080508;28;20100;-72
2023/04/01 05:52:50;;;;;;;18.75;6.72;;;13.60;96.70;;;;;;5089760;28;20047;-72
2023/04/01 05:55:18;;;;;;;18.30;7.05;;;13.70;96.70;;;;;;5085192;28;20089;-72
2023/04/01 05:57:49;;;;;;;13.50;5.97;;;13.70;96.70;;;;;;5085261;28;20040;-72
2023/04/01 06:00:19;;;;;;;15.98;6.40;;;13.70;96.70;;;;;;5085544;27;20040;-72
2023/04/01 06:02:48;;;;;;;18.10;6.35;;;13.70;96.70;;;;;;5092996;28;20055;-73
2023/04/01 06:05:19;;;;;;;11.52;5.70;;;13.80;96.70;;;;;;5094500;28;20047;-73
2023/04/01 06:07:50;;;;;;;10.60;5.22;;;13.90;96.70;;;;;;5081584;28;20202;-72
2023/04/01 06:10:21;;;;;;;17.23;6.72;;;13.90;96.70;;;;;;5126084;27;20047;-73
2023/04/01 06:12:58;;;;;;;15.07;6.57;;;13.90;96.70;;;;;;5135894;27;20054;-72
2023/04/01 06:15:34;;;;;;;13.65;6.07;;;13.90;96.70;;;;;;5145595;27;20039;-72
2023/04/01 06:18:36;;;;;;;11.77;5.47;;;13.90;96.70;;;;;;5124967;27;20070;-72
2023/04/01 06:21:20;;;;;;;16.80;5.28;;;14.00;96.70;;;;;;5139289;27;20088;-74
2023/04/01 06:24:13;;;;;;;12.40;4.97;;;14.10;96.70;;;;;;5143944;27;20403;-73
2023/04/01 06:26:48;;;;;;;16.25;5.40;;;14.20;96.70;;;;;;5141981;27;20127;-71
2023/04/01 06:30:00;;;;;;;12.27;5.15;;;14.30;96.70;;;;;;5144483;27;20059;-72
2023/04/01 06:33:15;;;;;;;11.05;4.80;;;14.30;96.70;;;;;;5107525;27;20039;-73
2023/04/01 06:36:06;;;;;;;11.27;4.10;;;14.30;96.70;;;;;;5120711;27;20042;-72
2023/04/01 06:39:11;;;;;;;8.65;3.90;;;14.20;96.70;;;;;;5143411;27;20054;-72
2023/04/01 06:42:02;;;;;;;10.45;4.28;;;14.30;96.70;;;;;;5119590;27;20057;-71
2023/04/01 06:44:42;;;;;;;10.77;4.72;;;14.40;96.70;;;;;;5143747;27;20051;-74
2023/04/01 06:47:40;;;;;;;9.77;4.20;;;14.50;96.70;;;;;;5145708;27;20520;-72
2023/04/01 06:50:57;;;;;;;9.27;4.70;;;14.50;96.70;;;;;;5077444;28;20048;-71
2023/04/01 06:53:53;;;;;;;9.40;4.13;;;14.60;96.70;;;;;;5066792;28;20768;-72
2023/04/01 06:56:50;;;;;;;10.20;4.53;;;14.70;96.70;;;;;;5043183;28;20048;-72
2023/04/01 06:59:27;;;;;;;12.48;4.20;;;14.80;96.70;;;;;;5055977;28;20171;-72
2023/04/01 07:01:59;;;;;;;13.05;4.18;;;14.70;96.70;;;;;;5063892;28;20518;-72
2023/04/01 07:04:31;;;;;;;11.05;3.60;;;14.70;96.70;;;;;;5080202;28;20052;-72
2023/04/01 07:07:04;;;;;;;9.15;3.53;;;14.70;96.70;;;;;;5046423;28;20170;-72
2023/04/01 07:09:36;;;;;;;11.80;3.35;;;14.70;96.70;;;;;;5052124;28;20055;-72
2023/04/01 07:12:46;;;;;;;14.25;6.90;;;14.70;96.70;;;;;;4999958;28;20058;-71
2023/04/01 07:15:39;;;;;;;11.40;5.05;;;14.80;96.70;;;;;;5072161;28;20054;-72
2023/04/01 07:18:16;;;;;;;12.82;4.05;;;14.80;96.70;;;;;;5064120;28;20505;-72
2023/04/01 07:20:46;;;;;;;9.10;4.13;;;14.80;96.70;;;;;;5070311;28;20151;-71
2023/04/01 07:23:22;;;;;;;10.02;4.45;;;14.80;96.70;;;;;;5063308;28;20068;-72
2023/04/01 07:26:11;;;;;;;7.10;3.42;;;14.90;96.70;;;;;;5133553;27;20092;-72
2023/04/01 07:28:59;;;;;;;10.18;4.38;;;15.00;96.70;;;;;;5136104;27;20050;-72
2023/04/01 07:31:53;;;;;;;83.13;39.92;;;15.00;96.70;;;;;;5122802;27;20051;-71
2023/04/01 07:34:26;;;;;;;28.23;15.45;;;15.00;96.70;;;;;;5142451;27;20043;-72
2023/04/01 07:37:01;;;;;;;25.48;11.55;;;15.00;96.70;;;;;;5143220;27;20054;-71
2023/04/01 07:39:41;;;;;;;14.68;7.82;;;15.10;96.70;;;;;;5141121;27;20050;-72
2023/04/01 07:42:50;;;;;;;17.75;7.25;;;15.10;96.70;;;;;;5134370;27;20047;-72
2023/04/01 07:45:29;;;;;;;14.60;5.30;;;15.20;96.70;;;;;;5126644;27;20055;-72
2023/04/01 07:48:10;;;;;;;8.85;3.85;;;15.30;96.70;;;;;;5144580;27;20046;-72
2023/04/01 07:50:47;;;;;;;9.75;3.42;;;15.30;96.70;;;;;;5142340;27;20150;-72
2023/04/01 07:53:23;;;;;;;8.48;2.72;;;15.30;96.70;;;;;;5142950;27;20175;-72
2023/04/01 07:56:01;;;;;;;9.93;3.30;;;15.30;96.70;;;;;;5142065;27;20049;-72
2023/04/01 07:58:44;;;;;;;7.30;2.58;;;15.30;96.70;;;;;;5136093;27;20046;-71
2023/04/01 08:01:27;;;;;;;;;;;15.40;96.70;;;;;;5143527;27;20042;-71
2023/04/01 08:04:15;;;;;;;;;;;15.40;96.70;;;;;;5142960;27;19927;-71
2023/04/01 08:06:51;;;;;;;12.18;2.60;;;15.50;96.70;;;;;;5142823;27;19922;-71
2023/04/01 08:09:30;;;;;;;16.92;3.92;;;15.50;96.70;;;;;;5143254;27;20043;-71
2023/04/01 08:12:28;;;;;;;16.17;3.42;;;15.70;96.70;;;;;;5140254;27;20054;-71
2023/04/01 08:15:14;;;;;;;13.63;2.75;;;15.70;96.70;;;;;;5143928;27;20050;-71
2023/04/01 08:17:58;;;;;;;9.35;2.90;;;15.70;96.70;;;;;;5144267;27;20052;-71
2023/04/01 08:20:33;;;;;;;9.63;2.17;;;15.70;96.70;;;;;;5137925;27;20047;-71
2023/04/01 08:23:18;;;;;;;11.18;3.05;;;15.80;96.70;;;;;;5140710;27;20047;-71
2023/04/01 08:25:52;;;;;;;11.68;3.28;;;15.90;96.70;;;;;;5136180;27;20088;-72
2023/04/01 08:28:29;;;;;;;9.70;2.72;;;15.90;96.70;;;;;;5125666;27;20077;-72
2023/04/01 08:31:04;;;;;;;10.07;2.47;;;16.00;96.70;;;;;;5125050;27;20074;-72
2023/04/01 08:33:35;;;;;;;9.70;3.03;;;16.10;96.70;;;;;;5142065;27;20300;-72
2023/04/01 08:36:16;;;;;;;15.27;2.63;;;16.20;96.70;;;;;;5126700;27;20514;-71
2023/04/01 08:38:53;;;;;;;11.80;2.83;;;16.30;96.70;;;;;;5125777;27;20062;-71
2023/04/01 08:41:56;;;;;;;10.38;2.75;;;16.30;96.70;;;;;;5133800;27;20047;-71
2023/04/01 08:45:28;;;;;;;12.45;2.80;;;16.40;96.70;;;;;;5048942;28;20049;-71
2023/04/01 08:48:14;;;;;;;10.13;2.45;;;16.60;96.70;;;;;;5053759;28;20159;-71
2023/04/01 08:51:11;;;;;;;12.93;2.80;;;16.60;96.70;;;;;;5053425;28;20056;-71
2023/04/01 08:54:04;;;;;;;15.20;3.08;;;16.60;96.70;;;;;;5067674;28;20195;-71
2023/04/01 08:56:39;;;;;;;8.32;2.08;;;16.60;96.70;;;;;;5067979;28;20052;-71
2023/04/01 08:59:45;;;;;;;10.68;2.53;;;16.70;96.70;;;;;;5041476;28;20049;-72
2023/04/01 09:02:55;;;;;;;11.13;2.22;;;16.80;96.70;;;;;;5057875;28;20700;-71
2023/04/01 09:05:49;;;;;;;17.05;2.78;;;17.00;96.70;;;;;;5053652;28;20163;-71
2023/04/01 09:08:33;;;;;;;13.55;3.42;;;17.00;96.70;;;;;;5061048;28;20090;-71
2023/04/01 09:11:12;;;;;;;14.77;3.08;;;16.90;96.70;;;;;;5069381;28;20060;-72
2023/04/01 09:14:23;;;;;;;13.15;2.90;;;17.00;96.70;;;;;;5064218;28;20047;-71
2023/04/01 09:17:29;;;;;;;15.27;3.20;;;17.00;96.70;;;;;;5098268;28;20540;-71
2023/04/01 09:20:30;;;;;;;14.18;2.58;;;17.00;96.70;;;;;;5088459;28;20098;-72
2023/04/01 09:23:21;;;;;;;15.00;2.67;;;17.00;96.70;;;;;;5102956;28;20067;-71
2023/04/01 09:25:56;;;;;;;;;;;17.20;96.70;;;;;;5099956;28;20044;-72
2023/04/01 09:28:33;;;;;;;11.73;2.85;;;17.20;96.70;;;;;;5104222;28;20533;-72
2023/04/01 09:31:26;;;;;;;9.83;1.87;;;17.10;96.70;;;;;;5101928;28;20052;-71
2023/04/01 09:34:50;;;;;;;10.50;2.13;;;17.20;96.70;;;;;;5099022;28;20059;-71
2023/04/01 09:37:36;;;;;;;17.02;2.88;;;17.30;96.70;;;;;;5114344;27;20162;-71
2023/04/01 09:40:25;;;;;;;15.80;3.33;;;17.30;96.70;;;;;;5103374;28;20509;-71
2023/04/01 09:43:22;;;;;;;13.23;2.83;;;17.40;96.70;;;;;;5114820;27;20519;-72
2023/04/01 09:46:11;;;;;;;12.98;3.15;;;17.60;96.70;;;;;;5119789;27;20145;-73
2023/04/01 09:49:03;;;;;;;14.63;2.70;;;17.50;96.70;;;;;;5139450;27;20532;-71
2023/04/01 09:51:41;;;;;;;15.20;3.30;;;17.60;96.70;;;;;;5143797;27;20042;-71
2023/04/01 09:54:23;;;;;;;10.50;2.38;;;17.60;96.70;;;;;;5137643;27;20047;-72
2023/04/01 09:57:39;;;;;;;15.50;2.80;;;17.70;96.70;;;;;;5141017;27;20498;-71
2023/04/01 10:00:51;;;;;;;14.77;2.90;;;17.80;96.70;;;;;;5080798;28;20455;-71
2023/04/01 10:04:09;;;;;;;14.57;2.88;;;17.80;96.70;;;;;;5089387;28;20135;-71
2023/04/01 10:07:22;;;;;;;10.73;2.88;;;17.90;96.70;;;;;;5021784;28;20056;-71
2023/04/01 10:10:42;;;;;;;15.10;3.35;;;17.90;96.70;;;;;;5043838;28;20050;-71
2023/04/01 10:13:39;;;;;;;10.35;2.70;;;17.80;96.70;;;;;;5101615;28;20035;-71
2023/04/01 10:16:26;;;;;;;9.10;2.60;;;17.90;96.70;;;;;;5085485;28;20055;-71
2023/04/01 10:19:23;;;;;;;16.80;3.50;;;18.00;96.70;;;;;;5091144;28;20079;-71
2023/04/01 10:22:22;;;;;;;14.07;3.33;;;18.10;96.70;;;;;;5072482;28;20524;-71
2023/04/01 10:25:30;;;;;;;16.77;3.50;;;18.20;96.70;;;;;;5084569;28;20064;-72
2023/04/01 10:28:37;;;;;;;9.85;2.55;;;18.00;96.70;;;;;;5084388;28;21013;-71
2023/04/01 10:31:53;;;;;;;14.00;2.90;;;18.00;96.70;;;;;;5129125;27;20116;-71
2023/04/01 10:34:49;;;;;;;17.55;3.97;;;18.20;96.70;;;;;;5137488;27;20510;-72
2023/04/01 10:37:57;;;;;;;13.18;3.10;;;18.30;96.70;;;;;;5137806;27;20150;-71
2023/04/01 10:40:54;;;;;;;14.27;3.25;;;18.20;96.70;;;;;;5086090;27;20039;-71
2023/04/01 10:44:27;;;;;;;15.00;3.83;;;18.20;96.70;;;;;;5146214;27;20051;-71
2023/04/01 10:47:45;;;;;;;16.42;3.45;;;18.40;96.70;;;;;;5110449;27;20047;-70
2023/04/01 10:50:44;;;;;;;15.52;2.85;;;18.40;96.70;;;;;;5123404;27;20468;-71
2023/04/01 10:53:47;;;;;;;11.55;2.90;;;18.50;96.70;;;;;;5143682;27;20102;-72
2023/04/01 10:56:55;;;;;;;11.48;2.65;;;18.60;96.70;;;;;;5083256;28;20083;-71
2023/04/01 11:00:26;;;;;;;13.30;3.13;;;18.70;96.70;;;;;;5029270;28;20119;-71
2023/04/01 11:04:02;;;;;;;13.95;3.03;;;18.80;96.70;;;;;;5146280;27;20515;-70
2023/04/01 11:07:12;;;;;;;14.15;3.05;;;18.90;96.70;;;;;;5145341;27;20610;-71
2023/04/01 11:10:17;;;;;;;11.23;2.90;;;18.80;96.70;;;;;;5114805;27;20115;-71
2023/04/01 11:13:29;;;;;;;10.00;2.53;;;18.90;96.70;;;;;;5140139;27;20077;-71
2023/04/01 11:16:26;;;;;;;15.48;3.28;;;19.00;96.70;;;;;;5136492;27;20049;-72
2023/04/01 11:19:30;;;;;;;13.02;3.78;;;19.30;96.70;;;;;;5142901;27;20103;-72
2023/04/01 11:22:46;;;;;;;18.10;3.85;;;19.20;96.70;;;;;;5091302;27;20050;-72
2023/04/01 11:25:35;;;;;;;11.95;3.58;;;19.40;96.70;;;;;;5042271;28;20638;-71
2023/04/01 11:28:59;;;;;;;10.13;2.75;;;19.40;96.70;;;;;;5084878;27;20086;-72
2023/04/01 11:31:37;;;;;;;10.68;3.00;;;19.30;96.70;;;;;;5141165;27;20050;-72
2023/04/01 11:34:21;;;;;;;14.85;3.47;;;19.50;96.70;;;;;;5126182;27;20048;-71
2023/04/01 11:37:00;;;;;;;13.32;2.58;;;19.60;96.70;;;;;;5126078;27;20058;-72
2023/04/01 11:39:44;;;;;;;10.30;2.33;;;19.70;96.70;;;;;;5136313;27;20047;-71
2023/04/01 11:42:41;;;;;;;13.75;2.95;;;19.70;96.70;;;;;;5140695;27;20066;-72
2023/04/01 11:45:53;;;;;;;13.45;2.85;;;19.60;96.70;;;;;;5139831;27;20046;-72
2023/04/01 11:48:50;;;;;;;9.30;2.20;;;19.60;96.70;;;;;;5126467;27;20145;-72
2023/04/01 11:51:48;;;;;;;7.95;2.00;;;19.80;96.70;;;;;;5142648;27;20326;-71
2023/04/01 11:54:40;;;;;;;7.65;2.00;;;19.80;96.70;;;;;;5140384;27;20058;-72
2023/04/01 11:57:23;;;;;;;11.20;2.92;;;20.00;96.70;;;;;;5124671;27;20046;-72
2023/04/01 12:00:14;;;;;;;12.13;2.88;;;20.10;96.70;;;;;;5142584;27;20074;-71
2023/04/01 12:02:50;;;;;;;8.70;2.35;;;20.10;96.70;;;;;;5134118;27;20043;-71
2023/04/01 12:05:42;;;;;;;7.53;2.20;;;20.20;96.70;;;;;;5142398;27;20078;-72
2023/04/01 12:08:31;;;;;;;8.25;1.85;;;20.30;96.70;;;;;;5137043;27;20432;-71
2023/04/01 12:11:16;;;;;;;8.80;2.10;;;20.20;96.70;;;;;;5130409;27;20039;-72
2023/04/01 12:13:53;;;;;;;7.82;1.80;;;20.30;96.70;;;;;;5134981;27;21421;-71
2023/04/01 12:16:54;;;;;;;11.10;2.72;;;20.50;96.70;;;;;;5143318;27;20518;-72
2023/04/01 12:19:31;;;;;;;10.40;2.38;;;20.40;96.70;;;;;;5143120;27;20407;-71
2023/04/01 12:22:28;;;;;;;9.15;2.47;;;20.60;96.70;;;;;;5142573;27;20133;-72
2023/04/01 12:25:18;;;;;;;9.27;1.83;;;20.70;96.70;;;;;;5137904;27;20035;-71
2023/04/01 12:28:02;;;;;;;10.43;1.97;;;20.50;96.70;;;;;;5138774;27;20055;-71
2023/04/01 12:30:55;;;;;;;6.68;1.92;;;20.50;96.70;;;;;;5135198;27;20042;-70
2023/04/01 12:33:48;;;;;;;10.63;2.75;;;20.70;96.70;;;;;;5112257;27;20107;-70
2023/04/01 12:36:31;;;;;;;12.60;3.38;;;20.70;96.70;;;;;;5144012;27;20392;-71
2023/04/01 12:39:22;;;;;;;7.60;2.95;;;20.80;96.70;;;;;;5142523;27;20099;-71
2023/04/01 12:41:59;;;;;;;13.73;3.47;;;20.80;96.70;;;;;;5138029;27;20039;-71
2023/04/01 12:44:47;;;;;;;8.60;2.83;;;20.80;96.70;;;;;;5141488;27;20223;-71
2023/04/01 12:47:55;;;;;;;10.40;2.65;;;20.80;96.70;;;;;;5142671;27;20047;-71
2023/04/01 12:50:31;;;;;;;8.15;2.00;;;21.00;96.70;;;;;;5127563;27;20440;-72
2023/04/01 12:53:07;;;;;;;;;;;20.90;96.70;;;;;;5125559;27;20134;-72
2023/04/01 12:55:38;;;;;;;10.23;2.20;;;20.90;96.70;;;;;;5135023;27;19967;-71
2023/04/01 12:58:49;;;;;;;7.10;2.22;;;21.00;96.70;;;;;;5141176;27;20068;-73
2023/04/01 13:01:34;;;;;;;9.20;2.17;;;20.90;96.70;;;;;;5135977;27;20769;-72
2023/04/01 13:04:30;;;;;;;8.18;2.28;;;20.70;96.70;;;;;;5144192;27;20436;-71
2023/04/01 13:07:13;;;;;;;9.00;2.13;;;20.70;96.70;;;;;;5133966;27;20749;-71
2023/04/01 13:09:52;;;;;;;8.82;2.42;;;20.80;96.70;;;;;;5138122;27;20806;-72
2023/04/01 13:13:04;;;;;;;9.52;2.25;;;20.90;96.70;;;;;;5121425;27;20051;-71
2023/04/01 13:15:54;;;;;;;9.98;1.80;;;20.70;96.70;;;;;;5122117;27;20059;-71
2023/04/01 13:18:36;;;;;;;7.22;1.70;;;20.90;96.70;;;;;;5134382;27;20066;-71
2023/04/01 13:21:11;;;;;;;10.75;2.40;;;21.20;96.70;;;;;;5143067;27;20476;-71
2023/04/01 13:23:59;;;;;;;12.13;2.17;;;20.80;96.70;;;;;;5143010;27;20042;-72
2023/04/01 13:26:34;;;;;;;7.28;2.05;;;20.80;96.70;;;;;;5137819;27;20069;-71
2023/04/01 13:29:10;;;;;;;10.95;2.20;;;20.80;96.70;;;;;;5135500;27;20047;-71
2023/04/01 13:32:02;;;;;;;11.50;2.40;;;20.60;96.70;;;;;;5142471;27;20095;-71
2023/04/01 13:34:45;;;;;;;11.77;2.50;;;20.50;96.70;;;;;;5143196;27;20118;-71
2023/04/01 13:37:28;;;;;;;7.88;2.35;;;20.60;96.70;;;;;;5131038;27;20045;-71
2023/04/01 13:40:15;;;;;;;9.13;2.35;;;20.60;96.70;;;;;;5135788;27;20039;-71
2023/04/01 13:42:49;;;;;;;10.40;2.80;;;20.50;96.70;;;;;;5143201;27;20113;-70
2023/04/01 13:45:22;;;;;;;10.77;2.17;;;20.30;96.70;;;;;;5142593;27;20062;-71
2023/04/01 13:48:22;;;;;;;12.50;2.53;;;20.20;96.70;;;;;;5139824;27;20057;-70
2023/04/01 13:51:08;;;;;;;11.25;2.88;;;20.00;96.70;;;;;;5141368;27;20126;-70
2023/04/01 13:53:55;;;;;;;13.27;2.47;;;20.30;96.70;;;;;;5143729;27;20039;-72
2023/04/01 13:56:44;;;;;;;9.80;2.28;;;20.40;96.70;;;;;;5141974;27;20107;-72
2023/04/01 13:59:37;;;;;;;10.55;2.72;;;20.30;96.70;;;;;;5143326;27;20053;-74